• Join FlightAware (Why Join?)
  • Login
  • US Flag 
06:47PM EDT


 

Airport Tracker/Info


-or-


 

Live Flight TrackerFlight Track Log ✈ GLA171 ✈ 05-May-2013 ✈ KPIR - KMSP

Flight Track Log - Related Links

Times and Time Zones

All times are in EDT time to prevent confusion due to time zone crossing. See the GLA171 flight status page for this flight to view local times or setup timezone preferences in your user account.

Time Position Orientation Groundspeed Altitude Reporting Facility
EDT Latitude Longitude Course Direction KTS MPH feet Rate Location/Type
11:06AM 44.3942 -100.3047 82° East 138 159 2,900  Level Minneapolis Center
11:07AM 44.4297 -100.3489 318° Northwest 167 192 5,500 2,160 Climbing Minneapolis Center
11:08AM 44.4392 -100.2975 76° East 182 209 7,400 1,860 Climbing Minneapolis Center
11:09AM 44.4400 -99.7113 82° East  Level Estimated
11:09AM 44.4194 -100.2283 112° Southeast 188 216 9,400  Level Minneapolis Center
11:10AM 44.4493 -99.6154 82° East  Level Estimated
11:10AM 44.4122 -100.1428 97° East 188 216 11,200  Level Minneapolis Center
11:11AM 44.4585 -99.5195 82° East  Level Estimated
11:11AM 44.4067 -100.0661 96° East 192 221 12,800  Level Minneapolis Center
11:12AM 44.4036 -99.9886 93° East 196 226 14,200 1,260 Climbing Minneapolis Center
11:13AM 44.4008 -99.9100 93° East 200 230 15,500 1,080 Climbing Minneapolis Center
11:14AM 44.3969 -99.8283 94° East 207 238 16,500 960 Climbing Minneapolis Center
11:15AM 44.4039 -99.7453 83° East 214 246 17,500 840 Climbing Minneapolis Center
11:16AM 44.4111 -99.6617 83° East 217 250 18,300 900 Climbing Minneapolis Center
11:17AM 44.4175 -99.5803 84° East 214 246 19,600 1,200 Climbing Minneapolis Center
11:18AM 44.4175 -99.4700 90° East 205 236 21,100 1,140 Climbing Minneapolis Center
11:19AM 44.4183 -99.3906 89° East 205 236 22,000 840 Climbing Minneapolis Center
11:20AM 44.4206 -99.3092 88° East 208 239 22,900 480 Climbing Minneapolis Center
11:21AM 44.4247 -99.2236 86° East 216 249 23,000 60 Climbing Minneapolis Center
11:22AM 44.4247 -99.1258 90° East 241 277 23,100  Climbing Minneapolis Center
11:23AM 44.4292 -99.0306 86° East 246 283 23,100 -60 Level Minneapolis Center
11:24AM 44.4350 -98.9422 85° East 236 272 23,000 -60 Descending Minneapolis Center
11:25AM 44.4372 -98.8531 88° East 232 267 23,000  Level Minneapolis Center
11:26AM 44.4350 -98.7497 92° East 225 259 23,000  Level Minneapolis Center
11:27AM 44.4317 -98.6631 93° East 224 258 23,000  Level Minneapolis Center
11:28AM 44.4356 -98.5761 86° East 224 258 23,100  Climbing Minneapolis Center
11:30AM 44.4348 -98.4729 91° East  Level FlightAware Approximate
11:30AM 44.4339 -98.4039 91° East 223 257 23,100  Level Minneapolis Center
11:32AM 44.4353 -98.3119 89° East 221 254 23,100 -60 Level Minneapolis Center
11:33AM 44.4436 -98.2264 82° East 221 254 23,000 -60 Descending Minneapolis Center
11:34AM 44.4439 -98.1397 90° East 224 258 23,000  Level Minneapolis Center
11:35AM 44.4439 -98.0489 90° East 230 265 23,100  Climbing Minneapolis Center
11:36AM 44.4458 -97.9322 89° East 246 283 23,000  Descending Minneapolis Center
11:37AM 44.4564 -97.8333 81° East 252 290 23,100  Climbing Minneapolis Center
11:38AM 44.4592 -97.7319 88° East 260 299 23,100  Level Minneapolis Center
11:39AM 44.4575 -97.6311 91° East 261 300 23,100 -60 Level Minneapolis Center
11:40AM 44.4564 -97.5300 91° East 261 300 23,000 -60 Descending Minneapolis Center
11:41AM 44.4586 -97.4314 88° East 255 293 23,000  Level Minneapolis Center
11:42AM 44.4633 -97.3394 86° East 241 277 23,000  Level Minneapolis Center
11:43AM 44.4697 -97.2311 85° East 235 270 23,000 -60 Level Minneapolis Center
11:44AM 44.4700 -97.1261 90° East 227 261 22,900  Descending Minneapolis Center
11:45AM 44.4706 -97.0372 89° East 228 262 23,000  Climbing Minneapolis Center
11:46AM 44.4700 -96.9494 90° East 227 261 23,000  Level Minneapolis Center
11:47AM 44.4706 -96.8619 89° East 225 259 23,000  Level Minneapolis Center
11:48AM 44.4717 -96.7753 89° East 224 258 23,000  Level Minneapolis Center
11:49AM 44.4728 -96.6894 89° East 222 255 23,000  Level Minneapolis Center
11:50AM 44.4719 -96.5853 91° East 223 257 23,100  Climbing Minneapolis Center
11:51AM 44.4717 -96.4972 90° East 224 258 23,000 -60 Descending Minneapolis Center
11:52AM 44.4722 -96.4106 89° East 223 257 23,000  Level Minneapolis Center
11:53AM 44.4733 -96.3217 89° East 227 261 23,000  Level Minneapolis Center
11:54AM 44.4736 -96.2350 90° East 224 258 23,000  Level Minneapolis Center
11:55AM 44.4719 -96.1461 91° East 227 261 23,000  Level Minneapolis Center
11:56AM 44.4697 -96.0594 92° East 224 258 23,000  Level Minneapolis Center
11:57AM 44.4703 -95.9700 89° East 227 261 23,000  Level Minneapolis Center
11:59AM 44.4683 -95.8808 92° East 229 264 23,000  Level Minneapolis Center
12:00PM 44.4656 -95.7578 92° East 226 260 23,000  Level Minneapolis Center
12:01PM 44.4656 -95.6689 90° East 227 261 23,000  Level Minneapolis Center
12:02PM 44.4664 -95.5797 89° East 229 264 23,100  Climbing Minneapolis Center
12:03PM 44.4669 -95.4883 89° East 233 268 23,100 -60 Level Minneapolis Center
12:04PM 44.4661 -95.3700 91° East 249 287 23,000 -60 Descending Minneapolis Center
12:05PM 44.4678 -95.2692 89° East 257 296 23,000 -60 Level Minneapolis Center
12:06PM 44.4700 -95.1686 88° East 258 297 22,900 -780 Descending Minneapolis Center
12:07PM 44.4794 -95.0414 84° East 275 316 21,400 -1,620 Descending Minneapolis Center
12:08PM 44.5136 -94.9406 65° Northeast 285 328 19,600 -1,860 Descending Minneapolis Center
12:09PM 44.5447 -94.8478 65° Northeast 271 312 17,700 -2,100 Descending Minneapolis Center
12:10PM 44.5661 -94.7483 73° East 267 307 15,300 -2,100 Descending Minneapolis Center
12:11PM 44.5842 -94.6492 76° East 265 305 13,500 -1,740 Descending Minneapolis Center
12:12PM 44.6122 -94.5486 69° East 256 295 11,800 -1,500 Descending Minneapolis Center
12:13PM 44.6350 -94.4539 71° East 258 297 10,400 -1,380 Descending Minneapolis Center
12:14PM 44.6564 -94.3533 73° East 269 310 9,000 -660 Descending Minneapolis Center
12:15PM 44.6781 -94.2606 72° East 250 288 9,100  Climbing Minneapolis Center
12:16PM 44.7008 -94.1667 71° East 255 293 9,100  Level Minneapolis Center
12:17PM 44.7236 -94.0711 71° East 257 296 9,100  Level Minneapolis Center
12:18PM 44.7350 -93.9519 82° East 259 298 9,100 -60 Level Minneapolis Center
12:19PM 44.7533 -93.8547 75° East 260 299 9,000  Descending Minneapolis Center
12:20PM 44.7717 -93.7533 76° East 267 307 9,100  Climbing Minneapolis Center
12:22PM 44.7961 -93.6539 71° East 271 312 9,000 -300 Descending Minneapolis Center
12:23PM 44.8278 -93.5558 65° Northeast 275 316 8,500 -480 Descending Minneapolis Center
12:24PM 44.8475 -93.4519 75° East 274 315 8,100 -240 Descending Minneapolis Center
12:25PM 44.8544 -93.3517 84° East 264 304 8,100 -840 Level Minneapolis Center
12:26PM 44.7739 -93.3419 175° South 256 295 6,400 -1,920 Descending Minneapolis Center
12:27PM 44.7417 -93.3039 140° Southeast 185 213 4,200 -1,560 Descending Minneapolis Center
12:28PM 44.7744 -93.2544 47° Northeast 168 193 3,300 -1,080 Descending Minneapolis Center
12:29PM 44.8156 -93.2253 27° Northeast 159 183 2,000 -1,020 Descending Minneapolis Center
12:30PM 44.8544 -93.2336 351° North 140 161 1,100 -780 Descending Minneapolis Center
12:32PM 44.8667 -93.2167 13° North  Level FlightAware Approximate
12:39PM 44.8820 -93.2218 13° North  Level Estimated